createdAt,value
2018-08-13T00:00:03.610Z,15.15
2018-08-13T00:05:03.604Z,15.27
2018-08-13T00:10:03.597Z,15.36
2018-08-13T00:15:03.602Z,15.41
2018-08-13T00:20:03.593Z,15.45
2018-08-13T00:25:03.604Z,15.6
2018-08-13T00:30:03.623Z,15.57
2018-08-13T00:35:03.609Z,15.55
2018-08-13T00:40:03.630Z,15.62
2018-08-13T00:45:03.619Z,15.69
2018-08-13T00:50:03.627Z,15.68
2018-08-13T00:55:03.619Z,15.68
2018-08-13T01:00:03.639Z,15.66
2018-08-13T01:05:03.623Z,15.63
2018-08-13T01:10:03.628Z,15.58
2018-08-13T01:15:03.631Z,15.59
2018-08-13T01:20:03.648Z,15.6
2018-08-13T01:25:03.632Z,15.56
2018-08-13T01:30:03.656Z,15.42
2018-08-13T01:35:03.649Z,15.27
2018-08-13T01:40:03.657Z,15.13
2018-08-13T01:45:03.649Z,14.93
2018-08-13T01:50:03.665Z,14.75
2018-08-13T01:55:03.663Z,14.55
2018-08-13T02:00:03.673Z,14.35
2018-08-13T02:05:03.658Z,14.15
2018-08-13T02:10:03.669Z,14.1
2018-08-13T02:15:03.661Z,14.09
2018-08-13T02:20:03.660Z,14.05
2018-08-13T02:25:03.660Z,13.96
2018-08-13T02:30:03.734Z,13.9
2018-08-13T02:35:03.672Z,13.86
2018-08-13T02:40:03.688Z,13.78
2018-08-13T02:45:03.682Z,13.7
2018-08-13T02:50:03.680Z,13.56
2018-08-13T02:55:03.681Z,13.44
2018-08-13T03:00:03.699Z,13.34
2018-08-13T03:05:03.683Z,13.22
2018-08-13T03:10:03.693Z,13.1
2018-08-13T03:15:03.697Z,13
2018-08-13T03:20:03.710Z,13.07
2018-08-13T03:25:03.699Z,13.2
2018-08-13T03:30:03.718Z,13.32
2018-08-13T03:35:03.705Z,13.33
2018-08-13T03:40:03.718Z,13.36
2018-08-13T03:45:03.710Z,13.35
2018-08-13T03:50:03.723Z,13.36
2018-08-13T03:55:03.709Z,13.36
2018-08-13T04:00:03.728Z,13.3
2018-08-13T04:05:03.727Z,13.2
2018-08-13T04:10:03.718Z,13.17
2018-08-13T04:15:03.729Z,13.14
2018-08-13T04:20:03.723Z,13.17
2018-08-13T04:25:03.742Z,13.18
2018-08-13T04:30:03.737Z,13.26
2018-08-13T04:35:03.736Z,13.41
2018-08-13T04:40:03.753Z,13.56
2018-08-13T04:45:03.757Z,13.71
2018-08-13T04:50:03.753Z,13.95
2018-08-13T04:55:03.740Z,14.15
2018-08-13T05:00:03.780Z,14.32
2018-08-13T05:05:03.771Z,14.38
2018-08-13T05:10:03.768Z,14.42
2018-08-13T05:15:03.765Z,14.49
2018-08-13T05:20:03.762Z,14.58
2018-08-13T05:25:03.763Z,14.75
2018-08-13T05:30:03.843Z,15.03
2018-08-13T05:35:03.787Z,15.43
2018-08-13T05:40:03.765Z,15.77
2018-08-13T05:45:03.786Z,16.05
2018-08-13T05:50:03.772Z,16.13
2018-08-13T05:55:03.797Z,16.06
2018-08-13T06:00:03.797Z,15.92
2018-08-13T06:05:03.784Z,15.87
2018-08-13T06:10:03.797Z,16.03
2018-08-13T06:15:03.802Z,16.48
2018-08-13T06:20:03.806Z,16.85
2018-08-13T06:25:03.805Z,16.96
2018-08-13T06:30:03.864Z,17.06
2018-08-13T06:35:03.836Z,17.48
2018-08-13T06:40:03.817Z,18.04
2018-08-13T06:45:03.800Z,18.69
2018-08-13T06:50:03.810Z,19.25
2018-08-13T06:55:03.808Z,19.31
2018-08-13T07:00:03.812Z,19.47
2018-08-13T07:05:03.821Z,20.04
2018-08-13T07:10:03.821Z,20.66
2018-08-13T07:15:03.823Z,21.16
2018-08-13T07:20:03.847Z,21.59
2018-08-13T07:25:03.844Z,21.94
2018-08-13T07:30:03.827Z,22.28
2018-08-13T07:35:03.850Z,22.69
2018-08-13T07:40:03.830Z,23.07
2018-08-13T07:45:03.831Z,23.28
2018-08-13T07:50:03.856Z,23.46
2018-08-13T07:55:03.845Z,23.61
2018-08-13T08:00:03.927Z,23.54
2018-08-13T08:05:03.856Z,23.68
2018-08-13T08:10:03.845Z,24.12
2018-08-13T08:15:03.849Z,24.43
2018-08-13T08:20:03.861Z,24.8
2018-08-13T08:25:03.853Z,25.05
2018-08-13T08:30:03.858Z,24.77
2018-08-13T08:35:03.868Z,24.94
2018-08-13T08:40:03.863Z,25.63
2018-08-13T08:45:03.865Z,25.77
2018-08-13T08:50:03.875Z,25.77
2018-08-13T08:55:03.872Z,25.79
2018-08-13T09:00:03.876Z,26.08
2018-08-13T09:05:03.887Z,26.28
2018-08-13T09:10:03.878Z,26.15
2018-08-13T09:15:03.880Z,25.67
2018-08-13T09:20:03.903Z,25.17
2018-08-13T09:25:03.892Z,24.83
2018-08-13T09:30:03.892Z,24.57
2018-08-13T09:35:03.912Z,24.25
2018-08-13T09:40:03.895Z,24.13
2018-08-13T09:45:03.899Z,23.95
2018-08-13T09:50:03.903Z,23.51
2018-08-13T09:55:03.908Z,22.96
2018-08-13T10:00:03.907Z,21.84
2018-08-13T10:05:03.912Z,21.09
2018-08-13T10:10:03.918Z,20.81
2018-08-13T10:15:03.925Z,20.8
2018-08-13T10:20:03.922Z,20.95
2018-08-13T10:25:03.946Z,21.3
2018-08-13T10:30:03.922Z,21.58
2018-08-13T10:35:03.922Z,21.79
2018-08-13T10:40:03.948Z,21.95
2018-08-13T10:45:03.932Z,22.08
2018-08-13T10:50:03.935Z,21.98
2018-08-13T10:55:03.940Z,21.62
2018-08-13T11:00:03.941Z,20.92
2018-08-13T11:05:03.959Z,20.15
2018-08-13T11:10:03.944Z,19.7
2018-08-13T11:15:03.950Z,19.4
2018-08-13T11:20:03.954Z,19.33
2018-08-13T11:25:03.954Z,19.52
2018-08-13T11:30:03.954Z,20.03
2018-08-13T11:35:03.971Z,20.48
2018-08-13T11:40:03.961Z,20.74
2018-08-13T11:45:03.959Z,21.05
2018-08-13T11:50:03.982Z,21.3
2018-08-13T11:55:03.972Z,21.28
2018-08-13T12:00:03.973Z,21.36
2018-08-13T12:05:03.979Z,21.53
2018-08-13T12:10:03.975Z,21.54
2018-08-13T12:15:03.980Z,21.37
2018-08-13T12:20:04.000Z,21.23
2018-08-13T12:25:03.985Z,21.24
2018-08-13T12:30:03.993Z,21.11
2018-08-13T12:35:03.999Z,20.92
2018-08-13T12:40:03.991Z,20.61
2018-08-13T12:45:03.995Z,20.28
2018-08-13T12:50:04.010Z,20.06
2018-08-13T12:55:04.002Z,19.94
2018-08-13T13:00:04.080Z,20.01
2018-08-13T13:05:04.015Z,20.61
2018-08-13T13:10:04.029Z,20.99
2018-08-13T13:15:04.027Z,21.09
2018-08-13T13:20:04.021Z,21.21
2018-08-13T13:25:04.037Z,21.38
2018-08-13T13:30:04.016Z,21.66
2018-08-13T13:35:04.027Z,22.17
2018-08-13T13:40:04.044Z,22.86
2018-08-13T13:45:04.024Z,23.46
2018-08-13T13:50:04.044Z,23.55
2018-08-13T13:55:04.031Z,23.9
2018-08-13T14:00:04.041Z,24.72
2018-08-13T14:05:04.047Z,25.73
2018-08-13T14:10:04.041Z,25.86
2018-08-13T14:15:04.042Z,25.29
2018-08-13T14:20:04.049Z,24.66
2018-08-13T14:25:04.045Z,24.18
2018-08-13T14:30:04.049Z,23.8
2018-08-13T14:35:04.057Z,23.9
2018-08-13T14:40:04.057Z,23.47
2018-08-13T14:45:04.058Z,22.77
2018-08-13T14:50:04.064Z,22.26
2018-08-13T14:55:04.060Z,23.29
2018-08-13T15:00:04.065Z,23.57
2018-08-13T15:05:04.090Z,24.09
2018-08-13T15:10:04.079Z,26.43
2018-08-13T15:15:04.077Z,28.69
2018-08-13T15:20:04.082Z,32.04
2018-08-13T15:25:04.078Z,32.4
2018-08-13T15:30:04.079Z,29.16
2018-08-13T15:35:04.098Z,26.46
2018-08-13T15:40:04.091Z,25.3
2018-08-13T15:45:04.093Z,24.53
2018-08-13T15:50:04.108Z,23.91
2018-08-13T15:55:04.100Z,23.88
2018-08-13T16:00:04.096Z,23.71
2018-08-13T16:05:04.115Z,23.57
2018-08-13T16:10:04.104Z,23.39
2018-08-13T16:15:04.110Z,23.03
2018-08-13T16:20:04.124Z,22.88
2018-08-13T16:25:04.109Z,22.87
2018-08-13T16:30:04.113Z,22.88
2018-08-13T16:35:04.131Z,22.86
2018-08-13T16:40:04.115Z,22.87
2018-08-13T16:45:04.120Z,22.99
2018-08-13T16:50:04.165Z,23.09
2018-08-13T16:55:04.130Z,22.81
2018-08-13T17:00:04.128Z,22.36
2018-08-13T17:05:04.139Z,22.36
2018-08-13T17:10:04.134Z,22.58
2018-08-13T17:15:04.140Z,22.56
2018-08-13T17:20:04.158Z,22.33
2018-08-13T17:25:04.135Z,22.17
2018-08-13T17:30:04.139Z,22.12
2018-08-13T17:35:04.156Z,22.14
2018-08-13T17:40:04.152Z,21.96
2018-08-13T17:45:04.154Z,21.62
2018-08-13T17:50:04.161Z,21.39
2018-08-13T17:55:04.158Z,21.11
2018-08-13T18:00:04.154Z,20.79
2018-08-13T18:05:04.170Z,20.58
2018-08-13T18:10:04.175Z,20.43
2018-08-13T18:15:04.172Z,20.3
2018-08-13T18:20:04.180Z,20.26
2018-08-13T18:25:04.170Z,20.3
2018-08-13T18:30:04.174Z,20.33
2018-08-13T18:35:04.201Z,20.27
2018-08-13T18:40:04.210Z,20.15
2018-08-13T18:45:04.189Z,20.07
2018-08-13T18:50:04.191Z,19.92
2018-08-13T18:55:04.194Z,19.65
2018-08-13T19:00:04.195Z,19.37
2018-08-13T19:05:04.205Z,19.1
2018-08-13T19:10:04.209Z,18.81
2018-08-13T19:15:04.201Z,18.56
2018-08-13T19:20:04.208Z,18.39
2018-08-13T19:25:04.230Z,18.13
2018-08-13T19:30:04.209Z,17.84
2018-08-13T19:35:04.214Z,17.52
2018-08-13T19:40:04.230Z,17.26
2018-08-13T19:45:04.237Z,16.9
2018-08-13T19:50:04.344Z,16.57
2018-08-13T19:55:04.228Z,16.26
2018-08-13T20:00:04.231Z,16.12
2018-08-13T20:05:04.247Z,16.13
2018-08-13T20:10:04.250Z,16.08
2018-08-13T20:15:04.233Z,16.12
2018-08-13T20:20:04.258Z,16.18
2018-08-13T20:25:04.246Z,16.46
2018-08-13T20:30:04.262Z,16.91
2018-08-13T20:35:04.248Z,17.47
2018-08-13T20:40:04.254Z,17.75
2018-08-13T20:45:04.264Z,17.96
2018-08-13T20:50:04.253Z,17.94
2018-08-13T20:55:04.270Z,17.75
2018-08-13T21:00:04.272Z,17.45
2018-08-13T21:05:04.275Z,17.18
2018-08-13T21:10:04.279Z,16.98
2018-08-13T21:15:04.260Z,16.69
2018-08-13T21:20:04.268Z,16.41
2018-08-13T21:25:04.288Z,16.04
2018-08-13T21:30:04.267Z,15.53
2018-08-13T21:35:04.273Z,15.43
2018-08-13T21:40:04.280Z,15.32
2018-08-13T21:45:04.277Z,15.3
2018-08-13T21:50:04.277Z,15.29
2018-08-13T21:55:04.289Z,15.31
2018-08-13T22:00:04.287Z,15.36
2018-08-13T22:05:04.288Z,15.37
2018-08-13T22:10:04.310Z,15.32
2018-08-13T22:15:04.292Z,15.07
2018-08-13T22:20:04.296Z,14.75
2018-08-13T22:25:04.330Z,14.63
2018-08-13T22:30:04.307Z,14.54
2018-08-13T22:35:04.302Z,14.69
2018-08-13T22:40:04.331Z,14.75
2018-08-13T22:45:04.316Z,14.84
2018-08-13T22:50:04.318Z,14.82
2018-08-13T22:55:04.323Z,14.87
2018-08-13T23:00:04.323Z,14.92
2018-08-13T23:05:04.329Z,14.96
2018-08-13T23:10:04.345Z,14.89
2018-08-13T23:15:04.333Z,14.86
2018-08-13T23:20:04.340Z,14.81
2018-08-13T23:25:04.356Z,14.89
2018-08-13T23:30:04.337Z,14.87
2018-08-13T23:35:04.345Z,14.88
2018-08-13T23:40:04.359Z,15.04
2018-08-13T23:45:04.346Z,15.16
2018-08-13T23:50:04.344Z,15.32
2018-08-13T23:55:04.366Z,15.45
